Time,TemperatureF,DewpointF,PressureIn,WindDirection,WindDirectionDegrees,WindSpeedMPH,WindSpeedGustMPH,Humidity,HourlyPrecipIn,Conditions,Clouds,dailyrainin,SoftwareType,DateUTC
2013-02-17 00:01:00,31.0,16.0,-100.00,SSW,199,38.0,45.0,55,0.00,,,-99.99,,2013-02-17 07:01:00,
2013-02-17 00:11:00,32.0,16.0,-100.00,SSW,200,40.0,44.0,52,0.00,,,-99.99,,2013-02-17 07:11:00,
2013-02-17 00:21:00,32.0,16.0,-100.00,SSW,205,40.0,45.0,51,0.00,,,-99.99,,2013-02-17 07:21:00,
2013-02-17 00:31:00,32.0,16.0,-100.00,SSW,203,37.0,41.0,51,0.00,,,-99.99,,2013-02-17 07:31:00,
2013-02-17 00:41:00,32.0,15.0,-100.00,SSW,203,35.0,38.0,50,0.00,,,-99.99,,2013-02-17 07:41:00,
2013-02-17 00:51:00,33.0,14.0,-100.00,SSW,206,32.0,37.0,47,0.00,,,-99.99,,2013-02-17 07:51:00,
2013-02-17 01:01:00,33.0,14.0,-100.00,SSW,206,32.0,35.0,44,0.00,,,-99.99,,2013-02-17 08:01:00,
2013-02-17 01:11:00,34.0,13.0,-100.00,SSW,200,32.0,37.0,41,0.00,,,-99.99,,2013-02-17 08:11:00,
2013-02-17 01:21:00,36.0,9.0,-100.00,South,188,27.0,38.0,32,0.00,,,-99.99,,2013-02-17 08:21:00,
2013-02-17 01:31:00,35.0,11.0,-100.00,South,185,28.0,32.0,36,0.00,,,-99.99,,2013-02-17 08:31:00,
2013-02-17 01:41:00,30.0,13.0,-100.00,SSE,167,28.0,30.0,47,0.00,,,-99.99,,2013-02-17 08:41:00,
2013-02-17 01:52:00,29.0,13.0,-100.00,SSE,167,26.0,29.0,51,0.00,,,-99.99,,2013-02-17 08:52:00,
2013-02-17 02:01:00,35.0,10.0,-100.00,South,189,22.0,26.0,35,0.00,,,-99.99,,2013-02-17 09:01:00,
2013-02-17 02:11:00,36.0,10.0,-100.00,South,191,22.0,26.0,33,0.00,,,-99.99,,2013-02-17 09:11:00,
2013-02-17 02:21:00,35.0,10.0,-100.00,SSW,193,26.0,28.0,35,0.00,,,-99.99,,2013-02-17 09:21:00,
2013-02-17 02:31:00,37.0,9.0,-100.00,South,188,19.0,27.0,30,0.00,,,-99.99,,2013-02-17 09:31:00,
2013-02-17 02:41:00,38.0,8.0,-100.00,SSW,195,19.0,22.0,28,0.00,,,-99.99,,2013-02-17 09:41:00,
2013-02-17 02:51:00,37.0,7.0,-100.00,SSW,206,17.0,20.0,29,0.00,,,-99.99,,2013-02-17 09:51:00,
2013-02-17 03:01:00,35.0,8.0,-100.00,WSW,237,14.0,19.0,31,0.00,,,-99.99,,2013-02-17 10:01:00,
2013-02-17 03:11:00,34.0,8.0,-100.00,WSW,246,8.0,12.0,34,0.00,,,-99.99,,2013-02-17 10:11:00,
2013-02-17 03:21:00,36.0,7.0,-100.00,WSW,246,10.0,16.0,29,0.00,,,-99.99,,2013-02-17 10:21:00,
2013-02-17 03:31:00,36.0,6.0,-100.00,SW,226,11.0,16.0,27,0.00,,,-99.99,,2013-02-17 10:31:00,
2013-02-17 03:41:00,34.0,7.0,-100.00,SSE,155,5.0,8.0,31,0.00,,,-99.99,,2013-02-17 10:41:00,
2013-02-17 03:51:00,35.0,7.0,-100.00,SE,144,5.0,10.0,29,0.00,,,-99.99,,2013-02-17 10:51:00,
2013-02-17 04:01:00,34.0,7.0,-100.00,SE,131,7.0,12.0,32,0.00,,,-99.99,,2013-02-17 11:01:00,
2013-02-17 04:11:00,33.0,6.0,-100.00,SE,130,11.0,13.0,33,0.00,,,-99.99,,2013-02-17 11:11:00,
2013-02-17 04:21:00,35.0,6.0,-100.00,South,174,8.0,11.0,29,0.00,,,-99.99,,2013-02-17 11:21:00,
2013-02-17 04:32:00,35.0,6.0,-100.00,South,189,6.0,8.0,29,0.00,,,-99.99,,2013-02-17 11:32:00,
2013-02-17 04:41:00,34.0,7.0,-100.00,SSW,198,7.0,9.0,32,0.00,,,-99.99,,2013-02-17 11:41:00,
2013-02-17 04:52:00,34.0,8.0,-100.00,SW,217,7.0,12.0,33,0.00,,,-99.99,,2013-02-17 11:52:00,
2013-02-17 05:02:00,33.0,7.0,-100.00,SW,227,6.0,11.0,34,0.00,,,-99.99,,2013-02-17 12:02:00,
2013-02-17 05:11:00,33.0,8.0,-100.00,WNW,291,7.0,13.0,34,0.00,,,-99.99,,2013-02-17 12:11:00,
2013-02-17 05:22:00,33.0,9.0,-100.00,WSW,243,12.0,16.0,37,0.00,,,-99.99,,2013-02-17 12:22:00,
2013-02-17 05:31:00,32.0,10.0,-100.00,WSW,244,10.0,19.0,39,0.00,,,-99.99,,2013-02-17 12:31:00,
2013-02-17 05:42:00,31.0,10.0,-100.00,WSW,244,11.0,16.0,41,0.00,,,-99.99,,2013-02-17 12:42:00,
2013-02-17 05:52:00,31.0,10.0,-100.00,WSW,247,9.0,16.0,42,0.00,,,-99.99,,2013-02-17 12:52:00,
2013-02-17 06:01:00,31.0,9.0,-100.00,SW,236,17.0,29.0,38,0.00,,,-99.99,,2013-02-17 13:01:00,
2013-02-17 06:11:00,31.0,10.0,-100.00,SW,236,19.0,29.0,40,0.00,,,-99.99,,2013-02-17 13:11:00,
2013-02-17 06:21:00,31.0,9.0,-100.00,SW,217,17.0,23.0,41,0.00,,,-99.99,,2013-02-17 13:21:00,
2013-02-17 06:32:00,32.0,9.0,-100.00,SSW,210,26.0,29.0,38,0.00,,,-99.99,,2013-02-17 13:32:00,
2013-02-17 06:41:00,31.0,10.0,-100.00,SW,217,26.0,28.0,40,0.00,,,-99.99,,2013-02-17 13:41:00,
2013-02-17 06:51:00,32.0,9.0,-100.00,SSW,210,30.0,33.0,37,0.00,,,-99.99,,2013-02-17 13:51:00,
2013-02-17 07:01:00,32.0,10.0,-100.00,SSW,210,29.0,32.0,39,0.00,,,-99.99,,2013-02-17 14:01:00,
2013-02-17 07:11:00,32.0,9.0,-100.00,SSW,210,29.0,31.0,37,0.00,,,-99.99,,2013-02-17 14:11:00,
2013-02-17 07:21:00,33.0,8.0,-100.00,SSW,208,29.0,31.0,34,0.00,,,-99.99,,2013-02-17 14:21:00,
2013-02-17 07:32:00,32.0,8.0,-100.00,SSW,210,27.0,30.0,36,0.00,,,-99.99,,2013-02-17 14:32:00,
2013-02-17 07:42:00,32.0,9.0,-100.00,SSW,212,25.0,29.0,38,0.00,,,-99.99,,2013-02-17 14:42:00,
2013-02-17 07:52:00,31.0,9.0,-100.00,SSW,209,29.0,30.0,38,0.00,,,-99.99,,2013-02-17 14:52:00,
2013-02-17 08:01:00,31.0,9.0,-100.00,SSW,208,28.0,31.0,39,0.00,,,-99.99,,2013-02-17 15:01:00,
2013-02-17 08:11:00,31.0,8.0,-100.00,SSW,209,30.0,32.0,38,0.00,,,-99.99,,2013-02-17 15:11:00,
2013-02-17 08:21:00,31.0,9.0,-100.00,SSW,208,29.0,32.0,40,0.00,,,-99.99,,2013-02-17 15:21:00,
2013-02-17 08:31:00,31.0,8.0,-100.00,SSW,206,30.0,32.0,39,0.00,,,-99.99,,2013-02-17 15:31:00,
2013-02-17 08:41:00,30.0,9.0,-100.00,SSW,208,29.0,34.0,40,0.00,,,-99.99,,2013-02-17 15:41:00,
2013-02-17 08:51:00,29.0,11.0,-100.00,SW,216,26.0,30.0,46,0.00,,,-99.99,,2013-02-17 15:51:00,
2013-02-17 09:01:00,29.0,10.0,-100.00,SSW,213,29.0,32.0,44,0.00,,,-99.99,,2013-02-17 16:01:00,
2013-02-17 09:11:00,30.0,11.0,-100.00,SSW,208,30.0,34.0,45,0.00,,,-99.99,,2013-02-17 16:11:00,
2013-02-17 09:21:00,31.0,11.0,-100.00,SSW,200,29.0,32.0,44,0.00,,,-99.99,,2013-02-17 16:21:00,
2013-02-17 09:31:00,31.0,11.0,-100.00,SSW,205,29.0,34.0,43,0.00,,,-99.99,,2013-02-17 16:31:00,
2013-02-17 09:41:00,31.0,13.0,-100.00,SSW,209,28.0,32.0,46,0.00,,,-99.99,,2013-02-17 16:41:00,
2013-02-17 09:51:00,31.0,14.0,-100.00,SSW,209,23.0,26.0,48,0.00,,,-99.99,,2013-02-17 16:51:00,
2013-02-17 10:02:00,31.0,14.0,-100.00,SW,220,21.0,27.0,49,0.00,,,-99.99,,2013-02-17 17:02:00,
2013-02-17 10:11:00,33.0,15.0,-100.00,West,274,6.0,12.0,48,0.00,,,-99.99,,2013-02-17 17:11:00,
2013-02-17 10:21:00,34.0,16.0,-100.00,West,268,4.0,7.0,48,0.00,,,-99.99,,2013-02-17 17:21:00,
2013-02-17 10:31:00,35.0,16.0,-100.00,West,275,3.0,6.0,47,0.00,,,-99.99,,2013-02-17 17:31:00,
2013-02-17 10:41:00,36.0,17.0,-100.00,West,271,4.0,7.0,46,0.00,,,-99.99,,2013-02-17 17:41:00,
2013-02-17 10:52:00,36.0,17.0,-100.00,NW,304,8.0,11.0,47,0.00,,,-99.99,,2013-02-17 17:52:00,
2013-02-17 11:01:00,35.0,17.0,-100.00,West,267,9.0,14.0,47,0.00,,,-99.99,,2013-02-17 18:01:00,
2013-02-17 11:11:00,35.0,13.0,-100.00,WNW,301,9.0,12.0,40,0.00,,,-99.99,,2013-02-17 18:11:00,
2013-02-17 11:21:00,36.0,9.0,-100.00,WSW,250,16.0,27.0,32,0.00,,,-99.99,,2013-02-17 18:21:00,
2013-02-17 11:33:00,36.0,11.0,-100.00,WSW,253,17.0,21.0,36,0.00,,,-99.99,,2013-02-17 18:33:00,
2013-02-17 11:41:00,36.0,9.0,-100.00,WNW,291,11.0,15.0,32,0.00,,,-99.99,,2013-02-17 18:41:00,
2013-02-17 11:52:00,37.0,7.0,-100.00,WNW,285,14.0,19.0,28,0.00,,,-99.99,,2013-02-17 18:52:00,
2013-02-17 12:01:00,37.0,6.0,-100.00,West,268,15.0,19.0,27,0.00,,,-99.99,,2013-02-17 19:01:00,
2013-02-17 12:11:00,37.0,7.0,-100.00,West,268,17.0,22.0,28,0.00,,,-99.99,,2013-02-17 19:11:00,
2013-02-17 12:21:00,38.0,4.0,-100.00,WNW,282,11.0,14.0,24,0.00,,,-99.99,,2013-02-17 19:21:00,
2013-02-17 12:31:00,36.0,8.0,-100.00,WNW,295,11.0,21.0,30,0.00,,,-99.99,,2013-02-17 19:31:00,
2013-02-17 12:41:00,34.0,8.0,-100.00,WNW,288,19.0,23.0,32,0.00,,,-99.99,,2013-02-17 19:41:00,
2013-02-17 12:51:00,34.0,2.0,-100.00,WNW,292,22.0,28.0,25,0.00,,,-99.99,,2013-02-17 19:51:00,
2013-02-17 13:01:00,34.0,-4.0,-100.00,WNW,298,21.0,26.0,19,0.00,,,-99.99,,2013-02-17 20:01:00,
2013-02-17 13:11:00,34.0,-3.0,-100.00,WNW,291,19.0,22.0,20,0.00,,,-99.99,,2013-02-17 20:11:00,
2013-02-17 13:21:00,34.0,3.0,-100.00,WNW,291,17.0,21.0,26,0.00,,,-99.99,,2013-02-17 20:21:00,
2013-02-17 13:31:00,32.0,15.0,-100.00,NW,315,16.0,18.0,49,0.00,,,-99.99,,2013-02-17 20:31:00,
2013-02-17 13:42:00,32.0,17.0,-100.00,NW,323,11.0,12.0,55,0.00,,,-99.99,,2013-02-17 20:42:00,
2013-02-17 13:52:00,32.0,17.0,-100.00,NW,319,7.0,12.0,52,0.00,,,-99.99,,2013-02-17 20:52:00,
2013-02-17 14:01:00,31.0,16.0,-100.00,NNW,335,10.0,12.0,53,0.00,,,-99.99,,2013-02-17 21:01:00,
2013-02-17 14:11:00,31.0,17.0,-100.00,NNW,335,11.0,14.0,53,0.00,,,-99.99,,2013-02-17 21:11:00,
2013-02-17 14:21:00,31.0,15.0,-100.00,NW,318,9.0,14.0,51,0.00,,,-99.99,,2013-02-17 21:21:00,
2013-02-17 14:31:00,31.0,15.0,-100.00,NW,313,9.0,12.0,52,0.00,,,-99.99,,2013-02-17 21:31:00,
2013-02-17 14:41:00,31.0,15.0,-100.00,NW,313,9.0,12.0,50,0.00,,,-99.99,,2013-02-17 21:41:00,
2013-02-17 14:52:00,31.0,14.0,-100.00,NW,311,11.0,15.0,48,0.00,,,-99.99,,2013-02-17 21:52:00,
2013-02-17 15:01:00,31.0,14.0,-100.00,NW,313,10.0,12.0,49,0.00,,,-99.99,,2013-02-17 22:01:00,
2013-02-17 15:11:00,32.0,13.0,-100.00,NW,309,9.0,12.0,46,0.00,,,-99.99,,2013-02-17 22:11:00,
2013-02-17 15:21:00,31.0,13.0,-100.00,NW,315,11.0,14.0,48,0.00,,,-99.99,,2013-02-17 22:21:00,
2013-02-17 15:32:00,31.0,13.0,-100.00,NW,311,11.0,14.0,47,0.00,,,-99.99,,2013-02-17 22:32:00,
2013-02-17 15:41:00,31.0,14.0,-100.00,NW,318,13.0,16.0,48,0.00,,,-99.99,,2013-02-17 22:41:00,
2013-02-17 15:52:00,30.0,14.0,-100.00,NW,319,12.0,17.0,49,0.00,,,-99.99,,2013-02-17 22:52:00,
2013-02-17 16:01:00,30.0,12.0,-100.00,NW,312,12.0,16.0,46,0.00,,,-99.99,,2013-02-17 23:01:00,
2013-02-17 16:11:00,30.0,12.0,-100.00,NW,315,16.0,19.0,47,0.00,,,-99.99,,2013-02-17 23:11:00,
2013-02-17 16:21:00,29.0,15.0,-100.00,NW,315,13.0,16.0,53,0.00,,,-99.99,,2013-02-17 23:21:00,
2013-02-17 16:31:00,30.0,15.0,-100.00,NW,304,11.0,13.0,54,0.00,,,-99.99,,2013-02-17 23:31:00,
2013-02-17 16:41:00,29.0,17.0,-100.00,NW,319,11.0,13.0,60,0.00,,,-99.99,,2013-02-17 23:41:00,
2013-02-17 16:52:00,30.0,19.0,-100.00,NNW,347,4.0,7.0,63,0.00,,,-99.99,,2013-02-17 23:52:00,
2013-02-17 17:01:00,29.0,20.0,-100.00,North,0,4.0,6.0,69,0.00,,,-99.99,,2013-02-18 00:01:00,
2013-02-17 17:11:00,28.0,20.0,-100.00,WNW,282,6.0,7.0,72,0.00,,,-99.99,,2013-02-18 00:11:00,
2013-02-17 17:22:00,27.0,21.0,-100.00,NW,316,6.0,9.0,75,0.00,,,-99.99,,2013-02-18 00:22:00,
2013-02-17 17:31:00,26.0,22.0,-100.00,North,357,7.0,11.0,87,0.01,,,-99.99,,2013-02-18 00:31:00,
2013-02-17 17:41:00,26.0,23.0,-100.00,NNE,30,6.0,7.0,88,0.04,,,-99.99,,2013-02-18 00:41:00,
2013-02-17 17:52:00,25.0,23.0,-100.00,WNW,301,9.0,10.0,93,0.03,,,-99.99,,2013-02-18 00:52:00,
2013-02-17 18:01:00,25.0,20.0,-100.00,WNW,288,11.0,16.0,82,0.01,,,-99.99,,2013-02-18 01:01:00,
2013-02-17 18:11:00,25.0,21.0,-100.00,WNW,291,11.0,12.0,86,0.00,,,-99.99,,2013-02-18 01:11:00,
2013-02-17 18:21:00,24.0,20.0,-100.00,West,277,17.0,19.0,86,0.04,,,-99.99,,2013-02-18 01:21:00,
2013-02-17 18:31:00,23.0,21.0,-100.00,West,275,11.0,14.0,94,0.01,,,-99.99,,2013-02-18 01:31:00,
2013-02-17 18:41:00,22.0,21.0,-100.00,WNW,292,12.0,15.0,95,0.06,,,-99.99,,2013-02-18 01:41:00,
2013-02-17 18:51:00,22.0,21.0,-100.00,North,359,9.0,14.0,95,0.10,,,-99.99,,2013-02-18 01:51:00,
2013-02-17 19:01:00,22.0,21.0,-100.00,North,10,9.0,14.0,95,0.08,,,-99.99,,2013-02-18 02:01:00,
2013-02-17 19:11:00,22.0,20.0,-100.00,NNW,330,10.0,17.0,95,0.03,,,-99.99,,2013-02-18 02:11:00,
2013-02-17 19:21:00,21.0,20.0,-100.00,NNW,343,9.0,14.0,95,0.11,,,-99.99,,2013-02-18 02:21:00,
2013-02-17 19:31:00,21.0,20.0,-100.00,North,6,9.0,13.0,95,0.13,,,-99.99,,2013-02-18 02:31:00,
2013-02-17 19:41:00,20.0,19.0,-100.00,NE,51,13.0,16.0,95,0.07,,,-99.99,,2013-02-18 02:41:00,
2013-02-17 19:51:00,20.0,19.0,-100.00,NE,51,8.0,11.0,95,0.10,,,-99.99,,2013-02-18 02:51:00,
2013-02-17 20:01:00,20.0,19.0,-100.00,North,350,5.0,8.0,95,0.01,,,-99.99,,2013-02-18 03:01:00,
2013-02-17 20:11:00,21.0,20.0,-100.00,North,8,6.0,9.0,96,0.03,,,-99.99,,2013-02-18 03:11:00,
2013-02-17 20:21:00,21.0,20.0,-100.00,North,7,5.0,7.0,95,0.04,,,-99.99,,2013-02-18 03:21:00,
2013-02-17 20:31:00,20.0,19.0,-100.00,NW,325,7.0,9.0,95,0.04,,,-99.99,,2013-02-18 03:31:00,
2013-02-17 20:41:00,20.0,19.0,-100.00,NW,316,7.0,9.0,95,0.20,,,-99.99,,2013-02-18 03:41:00,
2013-02-17 20:51:00,20.0,19.0,-100.00,North,356,4.0,7.0,95,0.04,,,-99.99,,2013-02-18 03:51:00,
2013-02-17 21:01:00,20.0,19.0,-100.00,NNW,336,6.0,9.0,95,0.01,,,-99.99,,2013-02-18 04:01:00,
2013-02-17 21:11:00,20.0,19.0,-100.00,NW,326,6.0,7.0,96,0.03,,,-99.99,,2013-02-18 04:11:00,
2013-02-17 21:21:00,20.0,19.0,-100.00,NW,312,6.0,7.0,95,0.00,,,-99.99,,2013-02-18 04:21:00,
2013-02-17 21:32:00,20.0,19.0,-100.00,NW,309,6.0,8.0,95,0.01,,,-99.99,,2013-02-18 04:32:00,
2013-02-17 21:41:00,20.0,19.0,-100.00,NW,325,4.0,6.0,95,0.03,,,-99.99,,2013-02-18 04:41:00,
2013-02-17 21:51:00,20.0,19.0,-100.00,WNW,288,4.0,5.0,95,0.00,,,-99.99,,2013-02-18 04:51:00,
2013-02-17 22:01:00,20.0,19.0,-100.00,WNW,292,2.0,4.0,95,0.00,,,-99.99,,2013-02-18 05:01:00,
2013-02-17 22:11:00,20.0,19.0,-100.00,NW,305,0.0,1.0,95,0.00,,,-99.99,,2013-02-18 05:11:00,
2013-02-17 22:21:00,20.0,19.0,-100.00,NW,313,2.0,4.0,95,0.01,,,-99.99,,2013-02-18 05:21:00,
2013-02-17 22:31:00,20.0,19.0,-100.00,WSW,247,1.0,2.0,95,0.00,,,-99.99,,2013-02-18 05:31:00,
2013-02-17 22:41:00,20.0,18.0,-100.00,South,186,1.0,2.0,95,0.00,,,-99.99,,2013-02-18 05:41:00,
2013-02-17 22:51:00,20.0,18.0,-100.00,South,191,2.0,4.0,95,0.00,,,-99.99,,2013-02-18 05:51:00,
2013-02-17 23:02:00,19.0,18.0,-100.00,SW,229,1.0,1.0,95,0.00,,,-99.99,,2013-02-18 06:02:00,
2013-02-17 23:11:00,18.0,17.0,-100.00,ESE,120,1.0,2.0,95,0.00,,,-99.99,,2013-02-18 06:11:00,
2013-02-17 23:21:00,18.0,16.0,-100.00,SSE,152,0.0,1.0,93,0.00,,,-99.99,,2013-02-18 06:21:00,
2013-02-17 23:31:00,17.0,16.0,-100.00,ESE,120,0.0,1.0,95,0.00,,,-99.99,,2013-02-18 06:31:00,
2013-02-17 23:41:00,17.0,16.0,-100.00,East,92,1.0,2.0,95,0.00,,,-99.99,,2013-02-18 06:41:00,
2013-02-17 23:51:00,17.0,15.0,-100.00,SSW,208,0.0,0.0,94,0.00,,,-99.99,,2013-02-18 06:51:00,